createdAt,value
2023-03-08T00:07:08.454Z,23.75
2023-03-08T00:12:14.276Z,24.92
2023-03-08T00:22:23.062Z,22.98
2023-03-08T00:27:28.963Z,21.48
2023-03-08T00:32:34.307Z,31.27
2023-03-08T00:37:38.792Z,23.02
2023-03-08T00:42:44.740Z,22.20
2023-03-08T00:52:53.309Z,21.77
2023-03-08T00:57:59.303Z,41.83
2023-03-08T01:03:05.610Z,28.95
2023-03-08T01:08:10.476Z,45.28
2023-03-08T01:13:16.320Z,62.05
2023-03-08T01:18:21.578Z,29.45
2023-03-08T01:23:26.574Z,79.40
2023-03-08T01:28:32.850Z,32.87
2023-03-08T01:33:37.838Z,44.03
2023-03-08T01:38:42.267Z,31.27
2023-03-08T01:43:49.266Z,46.13
2023-03-08T01:48:57.976Z,49.30
2023-03-08T01:54:06.426Z,28.60
2023-03-08T01:59:13.091Z,30.50
2023-03-08T02:04:17.489Z,32.90
2023-03-08T02:09:24.231Z,34.22
2023-03-08T02:14:31.834Z,42.95
2023-03-08T02:19:44.985Z,43.70
2023-03-08T02:24:50.830Z,40.85
2023-03-08T02:29:55.150Z,23.00
2023-03-08T02:35:00.298Z,30.70
2023-03-08T02:40:07.536Z,32.03
2023-03-08T02:45:12.588Z,22.23
2023-03-08T02:50:17.661Z,18.03
2023-03-08T02:55:24.046Z,21.33
2023-03-08T03:00:28.688Z,28.27
2023-03-08T03:05:33.446Z,41.83
2023-03-08T03:10:43.647Z,26.67
2023-03-08T03:15:48.264Z,18.05
2023-03-08T03:20:52.743Z,20.20
2023-03-08T03:25:58.771Z,19.70
2023-03-08T03:31:03.846Z,17.42
2023-03-08T03:36:10.911Z,22.03
2023-03-08T03:41:20.163Z,22.15
2023-03-08T03:46:26.779Z,20.35
2023-03-08T03:51:34.063Z,18.58
2023-03-08T03:56:51.038Z,25.58
2023-03-08T04:01:59.350Z,19.75
2023-03-08T04:07:13.384Z,19.88
2023-03-08T04:12:26.027Z,19.95
2023-03-08T04:17:30.956Z,17.92
2023-03-08T04:22:35.413Z,20.17
2023-03-08T04:27:49.108Z,19.00
2023-03-08T04:32:53.691Z,18.63
2023-03-08T04:38:01.664Z,21.08
2023-03-08T04:43:07.521Z,20.98
2023-03-08T04:48:16.742Z,17.98
2023-03-08T04:53:21.789Z,22.20
2023-03-08T04:58:28.587Z,18.52
2023-03-08T05:03:33.169Z,22.10
2023-03-08T05:08:38.485Z,17.37
2023-03-08T05:13:45.342Z,17.73
2023-03-08T05:18:49.998Z,18.50
2023-03-08T05:23:57.029Z,18.70
2023-03-08T05:29:06.472Z,20.13
2023-03-08T05:34:12.392Z,19.27
2023-03-08T05:39:19.600Z,18.10
2023-03-08T05:44:38.132Z,22.13
2023-03-08T05:49:43.950Z,21.73
2023-03-08T05:54:50.125Z,20.80
2023-03-08T05:59:58.276Z,22.90
2023-03-08T06:05:03.032Z,19.40
2023-03-08T06:10:08.754Z,17.35
2023-03-08T06:15:14.602Z,32.00
2023-03-08T06:20:19.129Z,16.83
2023-03-08T06:25:27.364Z,17.73
2023-03-08T06:30:34.134Z,18.08
2023-03-08T06:35:44.075Z,18.85
2023-03-08T06:40:49.401Z,17.67
2023-03-08T06:45:55.478Z,17.33
2023-03-08T06:50:59.968Z,25.55
2023-03-08T06:56:04.423Z,19.92
2023-03-08T07:01:11.575Z,21.85
2023-03-08T07:06:16.574Z,19.15
2023-03-08T07:11:21.087Z,16.07
2023-03-08T07:16:27.024Z,27.80
2023-03-08T07:26:35.567Z,22.13
2023-03-08T07:31:41.446Z,21.90
2023-03-08T07:41:50.548Z,17.00
2023-03-08T07:46:56.527Z,23.23
2023-03-08T07:57:05.943Z,22.30
2023-03-08T08:02:13.938Z,19.97
2023-03-08T08:07:18.738Z,16.25
2023-03-08T08:12:23.788Z,15.05
2023-03-08T08:17:29.698Z,17.53
2023-03-08T08:27:40.480Z,25.75
2023-03-08T08:32:46.463Z,13.50
2023-03-08T08:37:51.035Z,31.15
2023-03-08T08:42:55.443Z,23.23
2023-03-08T08:48:01.214Z,17.67
2023-03-08T08:53:05.765Z,18.75
2023-03-08T08:58:10.708Z,16.58
2023-03-08T09:03:16.604Z,17.38
2023-03-08T09:08:21.347Z,14.38
2023-03-08T09:13:26.376Z,21.10
2023-03-08T09:18:32.383Z,13.10
2023-03-08T09:28:41.079Z,18.50
2023-03-08T09:33:48.968Z,19.50
2023-03-08T09:38:54.164Z,19.63
2023-03-08T09:44:15.030Z,19.60
2023-03-08T09:49:24.409Z,19.85
2023-03-08T09:54:29.633Z,16.45
2023-03-08T09:59:41.099Z,14.17
2023-03-08T10:05:12.201Z,15.27
2023-03-08T10:10:32.158Z,17.58
2023-03-08T10:15:41.938Z,15.43
2023-03-08T10:20:49.699Z,14.93
2023-03-08T10:25:54.351Z,18.95
2023-03-08T10:31:01.004Z,25.17
2023-03-08T10:36:12.907Z,15.52
2023-03-08T10:41:18.932Z,12.60
2023-03-08T10:51:31.612Z,14.43
2023-03-08T10:56:39.725Z,15.77
2023-03-08T11:01:51.182Z,14.82
2023-03-08T11:06:57.151Z,12.93
2023-03-08T11:17:19.917Z,12.77
2023-03-08T11:22:34.468Z,13.20
2023-03-08T11:27:51.370Z,9.57
2023-03-08T11:33:32.996Z,13.85
2023-03-08T11:38:40.010Z,13.65
2023-03-08T11:43:57.012Z,24.63
2023-03-08T11:49:28.576Z,13.60
2023-03-08T11:54:48.084Z,10.52
2023-03-08T11:59:58.345Z,11.80
2023-03-08T12:05:11.609Z,10.18
2023-03-08T12:10:30.547Z,10.55
2023-03-08T12:15:40.406Z,9.15
2023-03-08T12:20:46.500Z,9.57
2023-03-08T12:26:00.659Z,8.60
2023-03-08T12:31:27.555Z,11.13
2023-03-08T12:36:41.025Z,19.55
2023-03-08T12:41:59.101Z,12.20
2023-03-08T12:47:18.249Z,11.70
2023-03-08T12:52:31.427Z,8.50
2023-03-08T12:57:43.080Z,10.98
2023-03-08T13:02:47.645Z,14.10
2023-03-08T13:08:02.046Z,13.07
2023-03-08T13:13:38.722Z,10.80
2023-03-08T13:18:45.064Z,9.68
2023-03-08T13:23:54.274Z,9.48
2023-03-08T13:29:00.486Z,9.40
2023-03-08T13:34:05.040Z,15.32
2023-03-08T13:39:19.680Z,13.95
2023-03-08T13:44:27.661Z,13.43
2023-03-08T13:49:35.867Z,16.08
2023-03-08T13:54:46.473Z,10.30
2023-03-08T13:59:54.120Z,14.73
2023-03-08T14:04:59.955Z,15.73
2023-03-08T14:10:05.793Z,14.25
2023-03-08T14:15:19.835Z,16.55
2023-03-08T14:20:26.193Z,12.32
2023-03-08T14:25:34.255Z,13.68
2023-03-08T14:30:49.083Z,14.40
2023-03-08T14:35:57.921Z,12.48
2023-03-08T14:41:06.258Z,14.95
2023-03-08T14:46:20.071Z,13.48
2023-03-08T14:51:30.391Z,15.73
2023-03-08T14:56:35.757Z,12.07
2023-03-08T15:01:41.876Z,15.25
2023-03-08T15:11:54.051Z,16.55
2023-03-08T15:17:00.242Z,14.90
2023-03-08T15:22:06.843Z,20.35
2023-03-08T15:27:20.527Z,14.15
2023-03-08T15:32:26.646Z,16.88
2023-03-08T15:37:32.100Z,15.20
2023-03-08T15:42:36.788Z,10.60
2023-03-08T15:47:42.993Z,14.52
2023-03-08T15:52:47.851Z,16.42
2023-03-08T15:57:52.908Z,24.97
2023-03-08T16:02:59.271Z,14.07
2023-03-08T16:08:05.375Z,16.33
2023-03-08T16:18:15.479Z,53.90
2023-03-08T16:28:23.981Z,42.97
2023-03-08T16:33:30.235Z,45.47
2023-03-08T16:38:34.918Z,49.78
2023-03-08T16:45:38.676Z,47.83
2023-03-08T16:49:06.239Z,52.38
2023-03-08T16:59:16.775Z,55.25
2023-03-08T17:04:23.272Z,76.78
2023-03-08T17:09:27.715Z,60.05
2023-03-08T17:14:34.626Z,56.80
2023-03-08T17:19:41.187Z,26.40
2023-03-08T17:24:45.561Z,15.70
2023-03-08T17:29:53.477Z,21.38
2023-03-08T17:34:59.520Z,15.07
2023-03-08T17:40:04.864Z,18.95
2023-03-08T17:45:10.603Z,14.25
2023-03-08T17:50:16.346Z,10.25
2023-03-08T17:55:20.693Z,9.40
2023-03-08T18:00:25.326Z,11.30
2023-03-08T18:05:31.240Z,9.70
2023-03-08T18:10:35.550Z,14.98
2023-03-08T18:15:39.853Z,14.02
2023-03-08T18:20:46.423Z,12.68
2023-03-08T18:25:50.862Z,17.23
2023-03-08T18:30:55.204Z,11.82
2023-03-08T18:36:02.411Z,12.00
2023-03-08T18:46:17.755Z,17.23
2023-03-08T18:51:23.923Z,12.98
2023-03-08T18:56:30.037Z,18.88
2023-03-08T19:01:34.845Z,13.88
2023-03-08T19:06:40.977Z,20.17
2023-03-08T19:11:45.735Z,22.48
2023-03-08T19:16:50.075Z,22.52
2023-03-08T19:21:55.888Z,24.73
2023-03-08T19:32:08.411Z,20.85
2023-03-08T19:37:15.326Z,22.33
2023-03-08T19:42:19.756Z,21.33
2023-03-08T19:47:24.068Z,27.60
2023-03-08T19:52:29.984Z,22.33
2023-03-08T19:57:34.373Z,27.77
2023-03-08T20:02:40.694Z,21.02
2023-03-08T20:07:46.571Z,21.65
2023-03-08T20:12:52.602Z,18.33
2023-03-08T20:17:56.954Z,24.15
2023-03-08T20:23:02.882Z,17.98
2023-03-08T20:28:07.550Z,18.27
2023-03-08T20:33:12.539Z,21.00
2023-03-08T20:38:18.594Z,20.15
2023-03-08T20:48:28.064Z,19.60
2023-03-08T20:53:35.134Z,17.15
2023-03-08T20:58:39.603Z,24.75
2023-03-08T21:03:44.276Z,13.48
2023-03-08T21:08:51.087Z,19.08
2023-03-08T21:13:55.661Z,21.92
2023-03-08T21:19:02.413Z,16.02
2023-03-08T21:24:10.047Z,15.65
2023-03-08T21:29:16.296Z,14.40
2023-03-08T21:34:21.491Z,14.63
2023-03-08T21:39:27.389Z,17.73
2023-03-08T21:44:32.179Z,13.88
2023-03-08T21:49:36.557Z,13.43
2023-03-08T21:54:42.547Z,14.93
2023-03-08T21:59:46.888Z,19.13
2023-03-08T22:04:51.223Z,15.20
2023-03-08T22:09:56.913Z,12.90
2023-03-08T22:15:01.248Z,13.00
2023-03-08T22:20:06.364Z,17.13
2023-03-08T22:25:12.633Z,13.47
2023-03-08T22:30:17.395Z,16.58
2023-03-08T22:35:22.447Z,13.55
2023-03-08T22:40:29.563Z,14.77
2023-03-08T22:45:35.040Z,12.07
2023-03-08T22:50:40.550Z,12.23
2023-03-08T22:55:50.365Z,16.30
2023-03-08T23:00:55.013Z,15.88
2023-03-08T23:05:59.559Z,13.43
2023-03-08T23:11:06.317Z,15.73
2023-03-08T23:16:13.854Z,14.40
2023-03-08T23:21:20.405Z,16.77
2023-03-08T23:26:28.615Z,16.65
2023-03-08T23:31:35.913Z,13.25
2023-03-08T23:36:40.572Z,15.30
2023-03-08T23:41:46.478Z,15.63
2023-03-08T23:51:55.149Z,16.58
2023-03-08T23:57:01.156Z,15.38
